Time;durP1;ratioP1;P1;durP2;ratioP2;P2;SDS_P1;SDS_P2;PMS_P1;PMS_P2;Temp;Humidity;BMP_temperature;BMP_pressure;BME280_temperature;BME280_humidity;BME280_pressure;Samples;Min_cycle;Max_cycle;Signal;HPM_P1;HPM_P2
2023/03/22 00:01:47;;;;;;;9.63;4.63;;;11.50;99.90;;;;;;5088755;28;20108;-48
2023/03/22 00:04:13;;;;;;;11.20;5.20;;;11.50;99.90;;;;;;5088246;28;20044;-48
2023/03/22 00:06:39;;;;;;;11.43;6.43;;;11.50;99.90;;;;;;5088868;28;20028;-49
2023/03/22 00:09:05;;;;;;;11.17;4.90;;;11.50;99.90;;;;;;5089005;28;20493;-51
2023/03/22 00:11:30;;;;;;;7.30;4.33;;;11.50;99.90;;;;;;5088872;28;20032;-50
2023/03/22 00:13:57;;;;;;;12.30;5.03;;;11.60;99.90;;;;;;5088899;28;20021;-49
2023/03/22 00:16:23;;;;;;;9.43;4.40;;;11.60;99.90;;;;;;5088749;28;20194;-52
2023/03/22 00:18:49;;;;;;;9.00;5.03;;;11.50;99.90;;;;;;5088030;28;20496;-48
2023/03/22 00:21:16;;;;;;;10.10;5.07;;;11.50;99.90;;;;;;5089104;28;20032;-47
2023/03/22 00:23:42;;;;;;;10.60;5.00;;;11.50;99.90;;;;;;5088498;28;20036;-48
2023/03/22 00:26:10;;;;;;;10.33;4.70;;;11.40;99.90;;;;;;5088967;28;20699;-51
2023/03/22 00:28:37;;;;;;;10.05;4.97;;;11.40;99.90;;;;;;5088469;28;20035;-47
2023/03/22 00:31:04;;;;;;;11.77;4.70;;;11.40;99.90;;;;;;5088780;28;20032;-49
2023/03/22 00:33:30;;;;;;;11.87;5.33;;;11.40;99.90;;;;;;5068988;28;20024;-51
2023/03/22 00:36:03;;;;;;;9.77;5.03;;;11.50;99.90;;;;;;5088964;28;20395;-48
2023/03/22 00:38:35;;;;;;;8.57;4.93;;;11.50;99.90;;;;;;5070004;28;20032;-54
2023/03/22 00:41:19;;;;;;;12.13;5.27;;;11.40;99.90;;;;;;5088911;28;20024;-50
2023/03/22 00:43:45;;;;;;;10.97;5.07;;;11.50;99.90;;;;;;5089147;28;20043;-48
2023/03/22 00:46:13;;;;;;;12.27;5.53;;;11.50;99.90;;;;;;5092793;28;20380;-49
2023/03/22 00:48:39;;;;;;;10.63;5.60;;;11.40;99.90;;;;;;5091375;28;20071;-54
2023/03/22 00:51:05;;;;;;;10.43;5.43;;;11.30;99.90;;;;;;5060934;22;20053;-49
2023/03/22 00:53:32;;;;;;;11.87;5.73;;;11.30;99.90;;;;;;5033730;28;20029;-48
2023/03/22 00:55:58;;;;;;;10.73;5.77;;;11.40;99.90;;;;;;5052167;28;20116;-50
2023/03/22 00:58:25;;;;;;;10.80;5.03;;;11.30;99.90;;;;;;5033876;28;20021;-50
2023/03/22 01:00:51;;;;;;;12.50;6.27;;;11.30;99.90;;;;;;5034112;28;20086;-49
2023/03/22 01:03:17;;;;;;;12.47;5.80;;;11.20;99.90;;;;;;5033175;28;20029;-51
2023/03/22 01:05:48;;;;;;;15.10;5.50;;;11.30;99.90;;;;;;5034306;28;20036;-50
2023/03/22 01:08:15;;;;;;;9.40;5.60;;;11.40;99.90;;;;;;5033838;28;20048;-47
2023/03/22 01:10:42;;;;;;;9.43;5.17;;;11.40;99.90;;;;;;5034018;28;20831;-46
2023/03/22 01:13:09;;;;;;;9.30;5.53;;;11.30;99.90;;;;;;5052147;28;20170;-50
2023/03/22 01:15:35;;;;;;;11.70;6.07;;;11.30;99.90;;;;;;5052251;28;20443;-48
2023/03/22 01:18:02;;;;;;;9.83;5.60;;;11.30;99.90;;;;;;5032972;28;20094;-51
2023/03/22 01:20:28;;;;;;;11.37;5.27;;;11.30;99.90;;;;;;5052174;28;20349;-49
2023/03/22 01:22:54;;;;;;;13.50;6.13;;;11.30;99.90;;;;;;5051966;28;20032;-47
2023/03/22 01:25:20;;;;;;;11.20;6.20;;;11.30;99.90;;;;;;5033869;28;20025;-48
2023/03/22 01:27:45;;;;;;;13.80;5.73;;;11.30;99.90;;;;;;5033650;28;20070;-49
2023/03/22 01:30:12;;;;;;;12.20;5.80;;;11.20;99.90;;;;;;5033766;28;20055;-50
2023/03/22 01:32:38;;;;;;;12.53;6.10;;;11.20;99.90;;;;;;5051323;28;20025;-50
2023/03/22 01:35:07;;;;;;;9.97;6.00;;;11.30;99.90;;;;;;5051675;28;20024;-49
2023/03/22 01:37:33;;;;;;;;;;;11.20;99.90;;;;;;5034025;28;20020;-48
2023/03/22 01:39:59;;;;;;;9.53;5.33;;;11.30;99.90;;;;;;5033755;28;20336;-47
2023/03/22 01:42:27;;;;;;;10.47;5.57;;;11.30;99.90;;;;;;5033655;28;20040;-51
2023/03/22 01:45:12;;;;;;;9.75;6.05;;;11.20;99.90;;;;;;5033719;28;20116;-45
2023/03/22 01:47:41;;;;;;;15.80;6.10;;;11.20;99.90;;;;;;5032386;28;20028;-52
2023/03/22 01:50:07;;;;;;;13.25;6.20;;;11.10;99.90;;;;;;5033512;28;20033;-48
2023/03/22 01:52:34;;;;;;;12.07;6.00;;;11.10;99.90;;;;;;5033562;28;20095;-49
2023/03/22 01:55:08;;;;;;;23.70;13.33;;;11.00;99.90;;;;;;5032703;28;20033;-52
2023/03/22 01:57:43;;;;;;;23.57;13.40;;;11.00;99.90;;;;;;5033022;28;20485;-48
2023/03/22 02:00:15;;;;;;;18.97;8.03;;;11.00;99.90;;;;;;5051512;28;20025;-51
2023/03/22 02:03:17;;;;;;;9.93;6.00;;;11.00;99.90;;;;;;5045105;28;20108;-49
2023/03/22 02:05:46;;;;;;;13.60;6.47;;;11.00;99.90;;;;;;5033546;28;20029;-50
2023/03/22 02:08:13;;;;;;;11.53;6.03;;;10.90;99.90;;;;;;5032836;28;20029;-49
2023/03/22 02:11:00;;;;;;;17.17;6.40;;;10.90;99.90;;;;;;5033047;28;20037;-50
2023/03/22 02:13:55;;;;;;;11.30;6.27;;;10.80;99.90;;;;;;5032694;28;20025;-49
2023/03/22 02:17:25;;;;;;;15.70;7.03;;;10.80;99.90;;;;;;5035539;28;20762;-50
2023/03/22 02:19:57;;;;;;;12.93;6.13;;;10.70;99.90;;;;;;5018823;28;20044;-49
2023/03/22 02:23:01;;;;;;;11.50;6.20;;;10.70;99.90;;;;;;5016571;28;20060;-48
2023/03/22 02:25:45;;;;;;;11.47;6.63;;;10.70;99.90;;;;;;5032743;28;20025;-48
2023/03/22 02:28:26;;;;;;;12.70;6.50;;;10.70;99.90;;;;;;5032582;28;20078;-49
2023/03/22 02:31:23;;;;;;;13.27;6.73;;;10.70;99.90;;;;;;5032663;28;20033;-51
2023/03/22 02:34:14;;;;;;;12.17;6.57;;;10.60;99.90;;;;;;5031903;28;20099;-50
2023/03/22 02:36:54;;;;;;;15.97;6.83;;;10.60;99.90;;;;;;5032496;28;20032;-51
2023/03/22 02:39:46;;;;;;;12.40;6.83;;;10.60;99.90;;;;;;5032452;28;20037;-49
2023/03/22 02:42:22;;;;;;;10.90;6.80;;;10.60;99.90;;;;;;5034383;28;20448;-50
2023/03/22 02:45:00;;;;;;;14.27;7.40;;;10.50;99.90;;;;;;5050017;28;20449;-46
2023/03/22 02:47:48;;;;;;;12.27;7.60;;;10.50;99.90;;;;;;5049958;28;20400;-49
2023/03/22 02:50:29;;;;;;;11.83;7.20;;;10.30;99.90;;;;;;5049957;28;20444;-50
2023/03/22 02:53:15;;;;;;;13.10;7.03;;;10.40;99.90;;;;;;5049792;28;20194;-46
2023/03/22 02:55:47;;;;;;;12.33;7.27;;;10.30;99.90;;;;;;5047731;28;20028;-49
2023/03/22 02:58:21;;;;;;;13.10;7.33;;;10.30;99.90;;;;;;5049880;28;20052;-50
2023/03/22 03:00:52;;;;;;;15.60;7.87;;;10.20;99.90;;;;;;5032065;28;20036;-47
2023/03/22 03:03:19;;;;;;;14.40;7.85;;;10.30;99.90;;;;;;5048821;28;20029;-45
2023/03/22 03:05:50;;;;;;;14.27;7.73;;;10.20;99.90;;;;;;5032085;28;20052;-49
2023/03/22 03:08:19;;;;;;;14.63;7.27;;;10.20;99.90;;;;;;5031334;28;20167;-47
2023/03/22 03:10:46;;;;;;;12.33;7.83;;;10.10;99.90;;;;;;5031812;28;20032;-49
2023/03/22 03:13:14;;;;;;;14.73;8.23;;;10.10;99.90;;;;;;5049648;28;20477;-49
2023/03/22 03:15:42;;;;;;;15.53;7.40;;;10.10;99.90;;;;;;5031578;28;20033;-48
2023/03/22 03:18:31;;;;;;;14.60;7.43;;;10.00;99.90;;;;;;5030380;28;20102;-51
2023/03/22 03:21:06;;;;;;;16.55;8.20;;;9.90;99.90;;;;;;5031775;28;20580;-49
2023/03/22 03:23:48;;;;;;;12.73;7.40;;;9.90;99.90;;;;;;5050772;28;20033;-45
2023/03/22 03:26:18;;;;;;;13.27;7.80;;;9.80;99.90;;;;;;5051629;28;20139;-52
2023/03/22 03:28:48;;;;;;;13.73;7.90;;;9.80;99.90;;;;;;5069431;28;20135;-51
2023/03/22 03:31:27;;;;;;;16.30;8.20;;;9.90;99.90;;;;;;5051232;28;20461;-52
2023/03/22 03:34:05;;;;;;;16.40;8.05;;;9.90;99.90;;;;;;5050556;28;20028;-49
2023/03/22 03:36:36;;;;;;;14.77;7.83;;;9.90;99.90;;;;;;5069038;28;20556;-50
2023/03/22 03:39:08;;;;;;;15.27;7.83;;;9.80;99.90;;;;;;5051038;28;20039;-50
2023/03/22 03:41:34;;;;;;;13.83;7.73;;;9.80;99.90;;;;;;5051176;28;20032;-50
2023/03/22 03:44:01;;;;;;;13.87;7.47;;;9.80;99.90;;;;;;5050769;28;20051;-49
2023/03/22 03:46:28;;;;;;;14.10;7.27;;;9.70;99.90;;;;;;5068861;28;20032;-50
2023/03/22 03:48:56;;;;;;;14.80;7.73;;;9.70;99.90;;;;;;5050324;28;20119;-51
2023/03/22 03:51:22;;;;;;;17.40;8.30;;;9.70;99.90;;;;;;5069329;28;20032;-51
2023/03/22 03:53:47;;;;;;;14.33;7.23;;;9.70;99.90;;;;;;5051004;28;20508;-48
2023/03/22 03:56:13;;;;;;;17.20;8.70;;;9.70;99.90;;;;;;5051351;28;20028;-50
2023/03/22 03:58:43;;;;;;;18.20;8.33;;;9.70;99.90;;;;;;5050930;28;20552;-51
2023/03/22 04:01:09;;;;;;;16.40;8.27;;;9.70;99.90;;;;;;5051113;28;20132;-48
2023/03/22 04:03:58;;;;;;;13.63;7.85;;;9.60;99.90;;;;;;5067458;28;20346;-50
2023/03/22 04:06:42;;;;;;;13.00;7.60;;;9.60;99.90;;;;;;5069277;28;20050;-50
2023/03/22 04:09:12;;;;;;;14.47;7.83;;;9.60;99.90;;;;;;5050714;28;20055;-50
2023/03/22 04:11:43;;;;;;;14.83;8.47;;;9.60;99.90;;;;;;5050756;28;20028;-49
2023/03/22 04:14:09;;;;;;;15.77;8.63;;;9.60;99.90;;;;;;5050251;28;20517;-48
2023/03/22 04:16:36;;;;;;;17.57;8.93;;;9.60;99.90;;;;;;5050466;28;20052;-48
2023/03/22 04:19:03;;;;;;;17.70;9.17;;;9.60;99.90;;;;;;5051337;28;20033;-53
2023/03/22 04:21:29;;;;;;;18.83;8.80;;;9.60;99.90;;;;;;5072906;28;20064;-49
2023/03/22 04:24:00;;;;;;;16.07;8.27;;;9.60;99.90;;;;;;5054682;28;20498;-48
2023/03/22 04:26:28;;;;;;;15.93;9.02;;;9.60;99.90;;;;;;5054582;28;20033;-49
2023/03/22 04:29:13;;;;;;;16.73;8.83;;;9.60;99.90;;;;;;5072984;28;20051;-46
2023/03/22 04:31:43;;;;;;;16.83;8.63;;;9.60;99.90;;;;;;5054240;28;20082;-48
2023/03/22 04:34:41;;;;;;;20.73;8.83;;;9.60;99.90;;;;;;5061821;28;20032;-51
2023/03/22 04:37:13;;;;;;;17.20;8.63;;;9.50;99.90;;;;;;5054371;28;20055;-51
2023/03/22 04:39:46;;;;;;;16.93;7.80;;;9.60;99.90;;;;;;5054304;28;20025;-51
2023/03/22 04:42:25;;;;;;;14.23;8.60;;;9.50;99.90;;;;;;5054305;28;20032;-48
2023/03/22 04:45:02;;;;;;;14.17;7.77;;;9.50;99.90;;;;;;5054290;28;20064;-46
2023/03/22 04:47:29;;;;;;;15.73;7.73;;;9.50;99.90;;;;;;5053665;28;20526;-49
2023/03/22 04:49:56;;;;;;;14.57;7.47;;;9.50;99.90;;;;;;5051014;28;20178;-49
2023/03/22 04:52:22;;;;;;;18.17;8.70;;;9.60;99.90;;;;;;5034306;28;20033;-47
2023/03/22 04:54:54;;;;;;;15.00;7.90;;;9.60;99.90;;;;;;5034018;28;20115;-51
2023/03/22 04:57:21;;;;;;;16.10;7.70;;;9.60;99.90;;;;;;5033664;28;20155;-47
2023/03/22 04:59:48;;;;;;;12.07;7.10;;;9.60;99.90;;;;;;5033357;28;20174;-50
2023/03/22 05:02:14;;;;;;;14.13;7.20;;;9.60;99.90;;;;;;5051203;28;20123;-47
2023/03/22 05:04:41;;;;;;;14.53;6.83;;;9.60;99.90;;;;;;5033210;28;20041;-49
2023/03/22 05:07:27;;;;;;;12.33;6.67;;;9.70;99.90;;;;;;5033579;28;20032;-47
2023/03/22 05:09:56;;;;;;;13.65;6.95;;;9.70;99.90;;;;;;5033959;28;20044;-47
2023/03/22 05:12:22;;;;;;;16.03;6.77;;;9.70;99.90;;;;;;5033236;28;20043;-48
2023/03/22 05:14:51;;;;;;;17.60;7.20;;;9.70;99.90;;;;;;5051757;28;20143;-48
2023/03/22 05:17:22;;;;;;;13.70;7.13;;;9.70;99.90;;;;;;5033171;28;20032;-50
2023/03/22 05:19:51;;;;;;;13.10;6.93;;;9.70;99.90;;;;;;5033019;28;20025;-47
2023/03/22 05:22:18;;;;;;;15.47;7.03;;;9.70;99.90;;;;;;5033787;28;20116;-48
2023/03/22 05:24:47;;;;;;;13.47;6.67;;;9.80;99.90;;;;;;5033300;28;20095;-50
2023/03/22 05:27:29;;;;;;;15.87;6.97;;;9.80;99.90;;;;;;5033512;28;20025;-46
2023/03/22 05:29:55;;;;;;;12.83;6.37;;;9.80;99.90;;;;;;5033072;28;20041;-48
2023/03/22 05:32:28;;;;;;;12.37;6.47;;;9.90;99.90;;;;;;5032947;28;20029;-47
2023/03/22 05:34:55;;;;;;;12.80;6.83;;;9.90;99.90;;;;;;5032556;28;20025;-51
2023/03/22 05:37:30;;;;;;;12.10;6.83;;;9.90;99.90;;;;;;5033570;28;20025;-46
2023/03/22 05:39:57;;;;;;;10.70;5.87;;;9.90;99.90;;;;;;5032723;28;20464;-47
2023/03/22 05:42:31;;;;;;;17.30;6.83;;;9.90;99.90;;;;;;5033322;28;20215;-45
2023/03/22 05:44:59;;;;;;;15.93;6.23;;;10.00;99.90;;;;;;5032925;28;20128;-48
2023/03/22 05:47:25;;;;;;;12.83;6.47;;;10.00;99.90;;;;;;5032800;28;20128;-49
2023/03/22 05:50:05;;;;;;;11.67;6.40;;;10.00;99.90;;;;;;5032797;28;20108;-46
2023/03/22 05:52:32;;;;;;;10.75;6.13;;;10.10;99.90;;;;;;5033124;28;20033;-49
2023/03/22 05:55:17;;;;;;;11.80;5.77;;;10.10;99.90;;;;;;5050978;28;20039;-47
2023/03/22 05:57:45;;;;;;;12.23;6.13;;;10.10;99.90;;;;;;5032856;28;20078;-47
2023/03/22 06:00:14;;;;;;;16.37;6.20;;;10.10;99.90;;;;;;5032966;28;20053;-52
2023/03/22 06:02:55;;;;;;;13.73;5.80;;;10.20;99.90;;;;;;5031916;28;20111;-48
2023/03/22 06:05:22;;;;;;;8.10;4.78;;;10.20;99.90;;;;;;5050986;28;20025;-49
2023/03/22 06:07:49;;;;;;;13.37;6.60;;;10.30;99.90;;;;;;5032287;28;20487;-48
2023/03/22 06:10:17;;;;;;;13.63;5.73;;;10.40;99.90;;;;;;5033045;28;20657;-45
2023/03/22 06:12:44;;;;;;;9.40;5.80;;;10.50;99.90;;;;;;5032166;28;20025;-55
2023/03/22 06:15:15;;;;;;;11.77;5.40;;;10.50;99.90;;;;;;5032779;28;20025;-51
2023/03/22 06:17:44;;;;;;;12.63;5.43;;;10.50;99.90;;;;;;5049537;28;20044;-50
2023/03/22 06:20:14;;;;;;;10.93;5.10;;;10.60;99.90;;;;;;5032677;28;20044;-51
2023/03/22 06:22:45;;;;;;;9.30;4.70;;;10.60;99.90;;;;;;5032482;28;20136;-49
2023/03/22 06:25:11;;;;;;;11.30;5.70;;;10.70;99.90;;;;;;5032502;28;20033;-50
2023/03/22 06:27:41;;;;;;;10.33;4.83;;;10.80;99.90;;;;;;5030393;28;20166;-53
2023/03/22 06:30:08;;;;;;;12.40;5.43;;;10.90;99.90;;;;;;5031369;28;20028;-52
2023/03/22 06:32:46;;;;;;;9.93;4.30;;;11.00;99.90;;;;;;5030809;28;20032;-51
2023/03/22 06:35:28;;;;;;;9.73;4.50;;;11.00;99.90;;;;;;5033374;28;20126;-54
2023/03/22 06:37:54;;;;;;;8.93;4.53;;;11.10;99.90;;;;;;5031245;28;20165;-52
2023/03/22 06:40:19;;;;;;;8.23;4.03;;;11.10;99.90;;;;;;5032064;28;20043;-51
2023/03/22 06:42:45;;;;;;;11.57;3.80;;;11.20;99.90;;;;;;5031225;28;20118;-50
2023/03/22 06:45:15;;;;;;;15.00;5.30;;;11.20;99.90;;;;;;5031773;28;20035;-47
2023/03/22 06:47:44;;;;;;;17.10;6.68;;;11.30;99.90;;;;;;5030619;28;20029;-51
2023/03/22 06:50:30;;;;;;;11.83;4.87;;;11.30;99.90;;;;;;5048999;28;20052;-44
2023/03/22 06:53:11;;;;;;;8.53;3.50;;;11.30;99.90;;;;;;5046525;28;20064;-48
2023/03/22 06:55:38;;;;;;;8.40;3.60;;;11.30;99.90;;;;;;5030956;28;20017;-49
2023/03/22 06:58:10;;;;;;;13.80;4.37;;;11.40;99.90;;;;;;5030955;28;20396;-50
2023/03/22 07:00:37;;;;;;;10.20;4.10;;;11.40;99.90;;;;;;5049073;28;20025;-47
2023/03/22 07:03:05;;;;;;;10.63;4.57;;;11.40;99.90;;;;;;5030355;28;20116;-52
2023/03/22 07:05:46;;;;;;;9.47;4.00;;;11.30;99.90;;;;;;5049136;28;20040;-51
2023/03/22 07:08:12;;;;;;;11.07;4.47;;;11.40;99.90;;;;;;5030747;28;20025;-49
2023/03/22 07:10:49;;;;;;;10.07;3.73;;;11.40;99.90;;;;;;5031269;28;20115;-47
2023/03/22 07:13:14;;;;;;;9.33;3.70;;;11.50;99.90;;;;;;5031218;28;20029;-49
2023/03/22 07:15:40;;;;;;;10.30;4.13;;;11.50;99.90;;;;;;5014437;28;20143;-51
2023/03/22 07:18:13;;;;;;;10.13;3.50;;;11.50;99.90;;;;;;5029394;28;20111;-48
2023/03/22 07:20:40;;;;;;;11.57;3.33;;;11.60;99.90;;;;;;5048839;28;20108;-48
2023/03/22 07:23:08;;;;;;;9.83;3.43;;;11.90;99.90;;;;;;5030855;28;20028;-49
2023/03/22 07:25:42;;;;;;;12.55;3.67;;;12.20;99.90;;;;;;5030847;28;20470;-49
2023/03/22 07:28:18;;;;;;;9.52;3.35;;;12.30;99.90;;;;;;5030433;28;20029;-51
2023/03/22 07:30:43;;;;;;;12.65;3.97;;;12.50;99.90;;;;;;5048493;28;20651;-51
2023/03/22 07:33:10;;;;;;;10.23;3.25;;;12.50;99.90;;;;;;5029813;28;20424;-51
2023/03/22 07:35:36;;;;;;;7.63;2.80;;;12.50;99.90;;;;;;5030929;28;20079;-48
2023/03/22 07:38:04;;;;;;;9.38;2.75;;;12.50;99.90;;;;;;5030341;28;20029;-53
2023/03/22 07:40:31;;;;;;;9.02;2.90;;;12.50;99.90;;;;;;5049235;28;20035;-53
2023/03/22 07:42:57;;;;;;;8.68;2.88;;;12.40;99.90;;;;;;5030791;28;20040;-50
2023/03/22 07:45:47;;;;;;;10.35;2.88;;;12.40;99.90;;;;;;5030637;28;20028;-53
2023/03/22 07:48:33;;;;;;;8.43;3.08;;;12.40;99.90;;;;;;5046941;28;20130;-54
2023/03/22 07:51:21;;;;;;;12.23;2.53;;;12.30;99.90;;;;;;5046457;28;20486;-51
2023/03/22 07:53:47;;;;;;;9.30;2.33;;;12.30;99.90;;;;;;5029978;28;20032;-45
2023/03/22 07:56:13;;;;;;;9.00;2.88;;;12.20;99.90;;;;;;5030430;28;20076;-49
2023/03/22 07:58:39;;;;;;;6.32;2.20;;;12.20;99.90;;;;;;5029703;28;20043;-48
2023/03/22 08:01:07;;;;;;;7.30;2.25;;;12.10;99.90;;;;;;5030601;28;20540;-49
2023/03/22 08:04:00;;;;;;;6.87;1.70;;;12.10;99.90;;;;;;5028702;28;20032;-46
2023/03/22 08:06:35;;;;;;;7.93;1.77;;;12.10;99.90;;;;;;5030262;28;20040;-48
2023/03/22 08:09:03;;;;;;;9.50;2.08;;;12.10;99.90;;;;;;5029072;28;20028;-47
2023/03/22 08:11:29;;;;;;;11.70;2.22;;;12.20;99.90;;;;;;5046854;28;20032;-51
2023/03/22 08:13:57;;;;;;;8.40;1.70;;;12.20;99.90;;;;;;5045752;28;20083;-52
2023/03/22 08:16:22;;;;;;;8.20;2.00;;;12.20;99.90;;;;;;5047010;28;20029;-49
2023/03/22 08:18:48;;;;;;;9.30;1.80;;;12.20;99.90;;;;;;5028254;28;20021;-48
2023/03/22 08:21:14;;;;;;;7.67;1.77;;;12.30;99.90;;;;;;5030850;28;20070;-49
2023/03/22 08:23:42;;;;;;;9.20;1.83;;;12.30;99.90;;;;;;5030797;28;20418;-48
2023/03/22 08:26:27;;;;;;;7.63;1.90;;;12.20;99.90;;;;;;5048639;28;20401;-52
2023/03/22 08:28:56;;;;;;;18.15;4.97;;;12.20;99.90;;;;;;5031783;28;20028;-47
2023/03/22 08:31:22;;;;;;;11.77;3.30;;;12.20;99.90;;;;;;5031745;28;20025;-51
2023/03/22 08:33:49;;;;;;;9.77;3.05;;;12.20;99.90;;;;;;5031550;28;20021;-49
2023/03/22 08:36:18;;;;;;;12.03;3.30;;;12.30;99.90;;;;;;5031678;28;20025;-47
2023/03/22 08:38:49;;;;;;;7.30;2.85;;;12.20;99.90;;;;;;5032075;28;20785;-50
2023/03/22 08:41:19;;;;;;;6.07;1.87;;;12.30;99.90;;;;;;5031894;28;20055;-47
2023/03/22 08:43:45;;;;;;;7.05;1.92;;;12.40;99.90;;;;;;5047755;28;20516;-50
2023/03/22 08:46:11;;;;;;;12.13;2.30;;;12.40;99.90;;;;;;5031531;28;20116;-50
2023/03/22 08:48:37;;;;;;;7.05;1.75;;;12.50;99.90;;;;;;5031647;28;20543;-53
2023/03/22 08:51:12;;;;;;;8.90;1.83;;;12.50;99.90;;;;;;5031269;28;20398;-49
2023/03/22 08:54:17;;;;;;;8.50;2.22;;;12.60;99.90;;;;;;5030368;28;20500;-49
2023/03/22 08:57:13;;;;;;;9.38;1.95;;;12.80;99.90;;;;;;5047632;28;20032;-49
2023/03/22 08:59:57;;;;;;;8.15;1.58;;;12.80;99.90;;;;;;5025902;28;20021;-48
2023/03/22 09:02:42;;;;;;;7.82;2.08;;;13.00;99.90;;;;;;5028469;28;20112;-47
2023/03/22 09:05:09;;;;;;;9.30;1.80;;;13.10;99.90;;;;;;5029621;28;20121;-47
2023/03/22 09:07:36;;;;;;;5.47;1.98;;;13.20;99.90;;;;;;5032046;28;20025;-49
2023/03/22 09:10:11;;;;;;;6.10;1.40;;;13.20;99.90;;;;;;5032214;28;20025;-48
2023/03/22 09:12:40;;;;;;;6.15;1.35;;;13.30;99.90;;;;;;5033670;28;20139;-46
2023/03/22 09:15:06;;;;;;;8.30;1.80;;;13.40;99.90;;;;;;5031824;28;20041;-49
2023/03/22 09:17:34;;;;;;;5.63;1.55;;;13.50;99.90;;;;;;5033210;28;20393;-50
2023/03/22 09:20:01;;;;;;;6.22;1.70;;;13.50;99.90;;;;;;5032213;28;20112;-48
2023/03/22 09:22:27;;;;;;;9.32;1.75;;;13.50;99.90;;;;;;5049297;28;20560;-48
2023/03/22 09:24:53;;;;;;;5.18;1.83;;;13.50;99.90;;;;;;5054990;28;20048;-49
2023/03/22 09:27:18;;;;;;;5.00;1.30;;;13.30;99.90;;;;;;5054678;28;20047;-50
2023/03/22 09:29:44;;;;;;;9.43;1.80;;;13.30;99.90;;;;;;5055081;28;20115;-48
2023/03/22 09:32:15;;;;;;;11.40;1.73;;;13.20;99.90;;;;;;5054853;28;20469;-49
2023/03/22 09:34:51;;;;;;;8.27;1.77;;;13.20;99.90;;;;;;5054905;28;20028;-50
2023/03/22 09:37:18;;;;;;;10.20;2.13;;;13.30;99.90;;;;;;5072736;28;20476;-52
2023/03/22 09:39:49;;;;;;;5.63;1.40;;;13.30;99.90;;;;;;5054791;28;20439;-48
2023/03/22 09:42:35;;;;;;;7.78;1.95;;;13.30;99.90;;;;;;5054654;28;20040;-50
2023/03/22 09:45:11;;;;;;;9.23;2.33;;;13.20;99.90;;;;;;5054558;28;20116;-46
2023/03/22 09:47:41;;;;;;;6.65;1.95;;;13.00;99.90;;;;;;5054567;28;20493;-51
2023/03/22 09:50:20;;;;;;;7.88;1.60;;;12.90;99.90;;;;;;5072547;28;20032;-50
2023/03/22 09:52:46;;;;;;;9.75;1.80;;;13.00;99.90;;;;;;5072551;28;20056;-47
2023/03/22 09:55:32;;;;;;;7.75;1.73;;;13.00;99.90;;;;;;5072375;28;20508;-48
2023/03/22 09:58:23;;;;;;;6.72;1.95;;;13.20;99.90;;;;;;5072470;28;20388;-51
2023/03/22 10:01:28;;;;;;;11.40;1.80;;;13.30;99.90;;;;;;5054328;28;20381;-51
2023/03/22 10:04:05;;;;;;;6.30;1.70;;;13.20;99.90;;;;;;5061305;28;20047;-48
2023/03/22 10:06:31;;;;;;;7.30;1.73;;;13.20;99.90;;;;;;5072298;28;20056;-53
2023/03/22 10:09:21;;;;;;;21.73;3.28;;;13.20;99.90;;;;;;5072311;28;20025;-50
2023/03/22 10:12:15;;;;;;;7.22;1.75;;;13.20;99.90;;;;;;5072043;28;20028;-52
2023/03/22 10:14:44;;;;;;;6.10;1.42;;;13.20;99.90;;;;;;5072071;28;20107;-49
2023/03/22 10:17:17;;;;;;;10.38;3.45;;;13.10;99.90;;;;;;5071004;28;20108;-49
2023/03/22 10:19:54;;;;;;;4.28;1.83;;;13.10;99.90;;;;;;5072565;28;20040;-47
2023/03/22 10:22:26;;;;;;;17.63;8.38;;;13.40;99.90;;;;;;5071939;28;20094;-47
2023/03/22 10:24:53;;;;;;;8.82;2.40;;;13.80;99.90;;;;;;5072253;28;20082;-49
2023/03/22 10:27:21;;;;;;;9.07;1.50;;;14.00;99.90;;;;;;5071859;28;20028;-50
2023/03/22 10:30:13;;;;;;;9.57;1.60;;;14.20;99.90;;;;;;5071668;28;20032;-49
2023/03/22 10:33:12;;;;;;;6.43;1.60;;;14.00;99.90;;;;;;5060922;28;20077;-51
2023/03/22 10:35:38;;;;;;;5.07;1.20;;;13.80;99.90;;;;;;5072071;28;20033;-53
2023/03/22 10:38:08;;;;;;;6.28;1.77;;;13.70;99.90;;;;;;5071440;28;20082;-50
2023/03/22 10:40:36;;;;;;;8.18;1.83;;;13.60;99.90;;;;;;5071800;28;20043;-51
2023/03/22 10:43:32;;;;;;;9.20;1.60;;;13.40;99.90;;;;;;5071713;28;20094;-48
2023/03/22 10:46:06;;;;;;;7.68;1.58;;;13.30;99.90;;;;;;5047811;28;20492;-49
2023/03/22 10:48:40;;;;;;;10.15;2.45;;;13.30;99.90;;;;;;5071298;28;20090;-48
2023/03/22 10:51:09;;;;;;;5.40;1.38;;;13.30;99.90;;;;;;5071423;28;20040;-51
2023/03/22 10:53:39;;;;;;;;;;;13.40;99.90;;;;;;5054089;28;20098;-49
2023/03/22 10:56:19;;;;;;;6.85;1.30;;;13.40;99.90;;;;;;5071370;28;19919;-51
2023/03/22 10:58:47;;;;;;;12.88;5.88;;;13.40;99.90;;;;;;5071388;28;20029;-46
2023/03/22 11:01:15;;;;;;;17.17;7.72;;;13.50;99.90;;;;;;5071163;28;20397;-49
2023/03/22 11:03:47;;;;;;;10.88;4.45;;;13.40;99.90;;;;;;5071191;28;20031;-52
2023/03/22 11:06:17;;;;;;;10.65;3.25;;;13.50;99.90;;;;;;5071196;28;20473;-46
2023/03/22 11:08:56;;;;;;;6.25;1.90;;;13.50;99.90;;;;;;5071386;28;20529;-47
2023/03/22 11:11:48;;;;;;;7.57;1.48;;;13.60;99.90;;;;;;5070848;28;20037;-48
2023/03/22 11:14:42;;;;;;;7.15;1.40;;;13.60;99.90;;;;;;5070910;28;20043;-52
2023/03/22 11:17:15;;;;;;;7.70;1.30;;;13.60;99.90;;;;;;5068894;28;20044;-47
2023/03/22 11:19:51;;;;;;;7.15;1.40;;;13.50;99.90;;;;;;5071011;28;20441;-49
2023/03/22 11:22:37;;;;;;;7.95;1.60;;;13.40;99.90;;;;;;5071051;28;20439;-50
2023/03/22 11:25:14;;;;;;;5.38;1.55;;;13.40;99.90;;;;;;5070623;28;20035;-47
2023/03/22 11:27:52;;;;;;;11.23;1.52;;;13.40;99.90;;;;;;5070437;28;20040;-46
2023/03/22 11:30:27;;;;;;;6.93;1.73;;;13.40;99.90;;;;;;5070683;28;20480;-48
2023/03/22 11:33:15;;;;;;;9.18;1.98;;;13.50;99.90;;;;;;5052779;28;20436;-46
2023/03/22 11:35:45;;;;;;;13.90;1.90;;;13.50;99.90;;;;;;5070645;28;20370;-47
2023/03/22 11:38:40;;;;;;;7.95;1.73;;;13.40;99.90;;;;;;5070486;28;20426;-48
2023/03/22 11:41:28;;;;;;;6.40;1.50;;;13.40;99.90;;;;;;5070715;28;20079;-47
2023/03/22 11:44:01;;;;;;;8.75;1.48;;;13.40;99.90;;;;;;5070268;28;20206;-48
2023/03/22 11:46:28;;;;;;;6.82;1.60;;;13.50;99.90;;;;;;5069975;28;20519;-47
2023/03/22 11:49:01;;;;;;;7.13;1.60;;;13.40;99.90;;;;;;5070183;28;20500;-47
2023/03/22 11:51:34;;;;;;;5.28;1.30;;;13.30;99.90;;;;;;5070427;28;20472;-47
2023/03/22 11:54:15;;;;;;;6.40;1.92;;;13.30;99.90;;;;;;5070374;28;20484;-47
2023/03/22 11:56:47;;;;;;;5.82;1.40;;;13.30;99.90;;;;;;5070233;28;20024;-47
2023/03/22 11:59:26;;;;;;;4.25;1.40;;;13.20;99.90;;;;;;5070768;28;20083;-46
2023/03/22 12:01:56;;;;;;;9.50;1.90;;;13.10;99.90;;;;;;5070676;28;20450;-47
2023/03/22 12:04:26;;;;;;;7.85;1.60;;;13.10;99.90;;;;;;5070334;28;20039;-47
2023/03/22 12:06:56;;;;;;;7.25;1.48;;;13.20;99.90;;;;;;5070323;28;20044;-49
2023/03/22 12:09:25;;;;;;;6.47;1.33;;;13.30;99.90;;;;;;5070336;28;20024;-48
2023/03/22 12:11:55;;;;;;;7.75;1.35;;;13.30;99.90;;;;;;5070273;28;20042;-48
2023/03/22 12:14:58;;;;;;;8.02;1.40;;;13.40;99.90;;;;;;5070209;28;20481;-51
2023/03/22 12:17:39;;;;;;;6.75;1.58;;;13.40;99.90;;;;;;5038741;28;20361;-49
2023/03/22 12:20:31;;;;;;;9.23;1.80;;;13.40;99.90;;;;;;5070417;28;20523;-50
2023/03/22 12:22:57;;;;;;;4.97;1.50;;;13.30;99.90;;;;;;5070225;28;20028;-48
2023/03/22 12:25:31;;;;;;;9.98;1.52;;;13.40;99.90;;;;;;5070044;28;20031;-48
2023/03/22 12:28:08;;;;;;;8.60;1.75;;;13.30;99.90;;;;;;5070085;28;20028;-47
2023/03/22 12:30:50;;;;;;;6.28;1.83;;;13.10;99.90;;;;;;5069990;28;20103;-47
2023/03/22 12:33:15;;;;;;;8.43;1.58;;;13.10;99.90;;;;;;5070398;28;20052;-50
2023/03/22 12:35:44;;;;;;;9.13;1.50;;;13.10;99.90;;;;;;5052186;28;20083;-47
2023/03/22 12:38:32;;;;;;;8.57;2.35;;;13.20;99.90;;;;;;5052030;28;20515;-48
2023/03/22 12:41:03;;;;;;;5.80;1.20;;;13.10;99.90;;;;;;5072719;28;20024;-47
2023/03/22 12:43:38;;;;;;;4.47;1.65;;;13.10;99.90;;;;;;5074077;28;20423;-47
2023/03/22 12:46:05;;;;;;;8.57;1.17;;;13.10;99.90;;;;;;5073941;28;20542;-48
2023/03/22 12:48:40;;;;;;;8.98;1.40;;;13.10;99.90;;;;;;5073593;28;20040;-52
2023/03/22 12:53:41;;;;;;;7.57;1.58;;;13.00;99.90;;;;;;5111024;28;20059;-53
2023/03/22 12:56:13;;;;;;;5.75;1.30;;;13.00;99.90;;;;;;5096107;28;20035;-52
2023/03/22 12:58:39;;;;;;;7.32;1.33;;;13.00;99.90;;;;;;5114073;28;20027;-54
2023/03/22 13:01:30;;;;;;;4.78;1.42;;;13.10;99.90;;;;;;5112954;28;20038;-53
2023/03/22 13:03:58;;;;;;;7.63;1.27;;;13.10;99.90;;;;;;5093461;28;20072;-51
2023/03/22 13:06:44;;;;;;;6.53;1.50;;;13.10;99.90;;;;;;5093669;28;20032;-53
2023/03/22 13:09:44;;;;;;;8.38;1.45;;;13.10;99.90;;;;;;5093613;28;20418;-49
2023/03/22 13:12:15;;;;;;;3.42;1.13;;;13.10;99.90;;;;;;5093549;28;20024;-53
2023/03/22 13:15:22;;;;;;;3.60;1.30;;;13.10;99.90;;;;;;5093378;28;20468;-51
2023/03/22 13:17:48;;;;;;;6.47;1.20;;;13.20;99.90;;;;;;5092803;28;20036;-50